Time;durP1;ratioP1;P1;durP2;ratioP2;P2;SDS_P1;SDS_P2;PMS_P1;PMS_P2;Temp;Humidity;BMP_temperature;BMP_pressure;BME280_temperature;BME280_humidity;BME280_pressure;Samples;Min_cycle;Max_cycle;Signal;HPM_P1;HPM_P2
2023/04/25 00:02:01;;;;;;;;;;;;;;;14.47;87.44;98936.63;5091991;28;19969;-42
2023/04/25 00:04:26;;;;;;;;;;;;;;;13.69;90.91;98939.25;5091851;28;19998;-43
2023/04/25 00:06:52;;;;;;;;;;;;;;;13.79;91.06;98934.06;5091627;28;20289;-42
2023/04/25 00:09:17;;;;;;;;;;;;;;;13.71;90.98;98922.94;5091804;28;19926;-42
2023/04/25 00:11:42;;;;;;;;;;;;;;;13.93;91.55;98929.19;5091696;28;20328;-42
2023/04/25 00:14:08;;;;;;;;;;;;;;;14.54;88.28;98920.34;5091723;28;20010;-44
2023/04/25 00:16:34;;;;;;;;;;;;;;;14.35;88.09;98912.63;5091763;28;19912;-42
2023/04/25 00:19:01;;;;;;;;;;;;;;;14.26;87.84;98914.13;5091527;28;19919;-42
2023/04/25 00:21:28;;;;;;;;;;;;;;;13.86;89.75;98909.84;5091745;28;19912;-42
2023/04/25 00:23:53;;;;;;;;;;;;;;;13.84;91.63;98911.91;5091482;28;19931;-42
2023/04/25 00:26:20;;;;;;;;;;;;;;;14.44;88.97;98911.13;5091316;28;20599;-43
2023/04/25 00:28:46;;;;;;;;;;;;;;;14.38;88.08;98914.00;5091896;28;19962;-42
2023/04/25 00:31:11;;;;;;;;;;;;;;;14.41;87.05;98911.66;5091468;28;20319;-42
2023/04/25 00:33:36;;;;;;;;;;;;;;;14.30;88.28;98906.41;5091755;28;19913;-42
2023/04/25 00:36:02;;;;;;;;;;;;;;;14.21;88.88;98895.31;5091456;28;19912;-42
2023/04/25 00:38:27;;;;;;;;;;;;;;;14.41;88.71;98873.34;5091402;28;19916;-42
2023/04/25 00:40:52;;;;;;;;;;;;;;;14.31;88.83;98890.09;5091390;28;19912;-42
2023/04/25 00:43:18;;;;;;;;;;;;;;;14.21;88.19;98895.31;5090334;28;19912;-43
2023/04/25 00:45:43;;;;;;;;;;;;;;;14.15;89.17;98896.31;5091175;28;19961;-43
2023/04/25 00:48:09;;;;;;;;;;;;;;;14.17;90.02;98892.34;5091453;28;19923;-41
2023/04/25 00:50:35;;;;;;;;;;;;;;;14.48;89.80;98898.06;5091689;28;19916;-42
2023/04/25 00:53:00;;;;;;;;;;;;;;;14.62;86.28;98895.84;5092043;28;19969;-42
2023/04/25 00:55:26;;;;;;;;;;;;;;;14.52;87.34;98898.38;5090092;28;19912;-42
2023/04/25 00:57:51;;;;;;;;;;;;;;;13.83;89.53;98892.41;5091903;28;20025;-42
2023/04/25 01:00:16;;;;;;;;;;;;;;;13.82;90.61;98906.00;5091696;28;19908;-43
2023/04/25 01:02:43;;;;;;;;;;;;;;;13.81;93.99;98913.22;5091204;28;20090;-41
2023/04/25 01:05:08;;;;;;;;;;;;;;;14.48;90.15;98903.41;5091565;28;20364;-41
2023/04/25 01:07:34;;;;;;;;;;;;;;;14.37;89.03;98905.16;5091732;28;19941;-43
2023/04/25 01:09:59;;;;;;;;;;;;;;;14.22;89.54;98891.56;5091412;28;20390;-42
2023/04/25 01:12:24;;;;;;;;;;;;;;;13.88;92.09;98889.00;5091248;28;19912;-42
2023/04/25 01:14:50;;;;;;;;;;;;;;;13.71;94.11;98893.53;5091483;28;19913;-42
2023/04/25 01:17:15;;;;;;;;;;;;;;;14.06;92.23;98915.44;5091355;28;19922;-42
2023/04/25 01:19:41;;;;;;;;;;;;;;;14.21;91.26;98908.72;5091251;28;19974;-42
2023/04/25 01:22:06;;;;;;;;;;;;;;;13.76;93.92;98910.47;5091380;28;20036;-43
2023/04/25 01:24:32;;;;;;;;;;;;;;;13.54;95.69;98904.25;5091132;28;19977;-43
2023/04/25 01:26:58;;;;;;;;;;;;;;;13.73;94.79;98907.47;5091297;28;20392;-43
2023/04/25 01:29:24;;;;;;;;;;;;;;;13.57;97.21;98907.22;5090951;28;20002;-42
2023/04/25 01:31:50;;;;;;;;;;;;;;;14.56;91.70;98900.28;5091086;28;20060;-42
2023/04/25 01:34:16;;;;;;;;;;;;;;;13.99;92.06;98893.44;5091005;28;19999;-43
2023/04/25 01:36:41;;;;;;;;;;;;;;;13.83;94.04;98891.59;5091089;28;20443;-42
2023/04/25 01:39:07;;;;;;;;;;;;;;;13.94;92.50;98888.00;5091050;28;19912;-43
2023/04/25 01:41:34;;;;;;;;;;;;;;;13.76;94.76;98890.94;5090971;28;20010;-42
2023/04/25 01:43:59;;;;;;;;;;;;;;;14.20;95.88;98896.38;5090712;28;20321;-43
2023/04/25 01:46:25;;;;;;;;;;;;;;;14.43;91.81;98901.50;5091036;28;19967;-43
2023/04/25 01:48:50;;;;;;;;;;;;;;;14.27;90.15;98895.13;5090991;28;19923;-43
2023/04/25 01:51:16;;;;;;;;;;;;;;;13.93;90.75;98904.31;5091009;28;19913;-42
2023/04/25 01:53:42;;;;;;;;;;;;;;;13.72;94.53;98903.19;5090674;28;19912;-42
2023/04/25 01:56:07;;;;;;;;;;;;;;;13.65;94.78;98890.81;5094054;28;19961;-41
2023/04/25 01:58:33;;;;;;;;;;;;;;;14.43;91.63;98882.75;5094406;28;20006;-42
2023/04/25 02:00:58;;;;;;;;;;;;;;;13.96;92.90;98872.53;5094700;28;19927;-41
2023/04/25 02:03:23;;;;;;;;;;;;;;;13.78;93.69;98870.91;5094947;28;19929;-42
2023/04/25 02:05:49;;;;;;;;;;;;;;;13.60;95.84;98885.38;5095077;28;19955;-41
2023/04/25 02:08:14;;;;;;;;;;;;;;;13.53;97.36;98883.91;5094901;28;19924;-42
2023/04/25 02:10:39;;;;;;;;;;;;;;;13.76;98.00;98877.59;5094665;28;19951;-41
2023/04/25 02:13:05;;;;;;;;;;;;;;;14.36;93.94;98874.09;5094930;28;19983;-42
2023/04/25 02:15:30;;;;;;;;;;;;;;;13.73;95.62;98878.88;5094932;28;19919;-42
2023/04/25 02:17:56;;;;;;;;;;;;;;;13.61;96.64;98887.00;5094620;28;19916;-42
2023/04/25 02:20:21;;;;;;;;;;;;;;;13.64;96.76;98875.00;5094707;28;19918;-42
2023/04/25 02:22:47;;;;;;;;;;;;;;;13.43;98.03;98873.88;5094410;28;20361;-42
2023/04/25 02:25:12;;;;;;;;;;;;;;;13.97;97.55;98882.16;5093722;28;19920;-42
2023/04/25 02:27:38;;;;;;;;;;;;;;;14.16;94.02;98871.16;5094196;28;19955;-42
2023/04/25 02:30:04;;;;;;;;;;;;;;;13.73;95.63;98878.88;5094185;28;19999;-43
2023/04/25 02:32:30;;;;;;;;;;;;;;;13.81;95.85;98869.63;5094081;28;19919;-43
2023/04/25 02:34:55;;;;;;;;;;;;;;;13.55;97.24;98877.25;5094005;28;20367;-42
2023/04/25 02:37:20;;;;;;;;;;;;;;;13.52;97.36;98867.09;5093837;28;19919;-41
2023/04/25 02:39:46;;;;;;;;;;;;;;;13.99;96.48;98872.03;5093676;28;19919;-42
2023/04/25 02:42:11;;;;;;;;;;;;;;;14.11;94.84;98869.25;5093716;28;19912;-42
2023/04/25 02:44:36;;;;;;;;;;;;;;;13.92;94.81;98865.22;5093641;28;19912;-44
2023/04/25 02:47:01;;;;;;;;;;;;;;;13.91;94.05;98874.31;5093201;28;20241;-43
2023/04/25 02:49:27;;;;;;;;;;;;;;;13.67;96.78;98869.19;5093338;28;19912;-43
2023/04/25 02:51:52;;;;;;;;;;;;;;;13.78;97.04;98868.25;5093412;28;19912;-43
2023/04/25 02:54:17;;;;;;;;;;;;;;;14.65;92.70;98871.25;5093464;28;19986;-43
2023/04/25 02:56:42;;;;;;;;;;;;;;;13.95;93.65;98876.25;5093586;28;19981;-43
2023/04/25 02:59:08;;;;;;;;;;;;;;;13.73;95.27;98883.41;5093344;28;19974;-42
2023/04/25 03:01:33;;;;;;;;;;;;;;;13.48;96.50;98882.00;5093922;28;20287;-44
2023/04/25 03:03:58;;;;;;;;;;;;;;;13.71;96.12;98877.50;5094054;28;20022;-43
2023/04/25 03:06:24;;;;;;;;;;;;;;;13.89;96.12;98882.59;5092811;28;19912;-44
2023/04/25 03:08:49;;;;;;;;;;;;;;;14.25;93.24;98886.53;5093630;28;19949;-43
2023/04/25 03:11:15;;;;;;;;;;;;;;;14.10;91.98;98883.66;5093740;28;20364;-44
2023/04/25 03:13:40;;;;;;;;;;;;;;;13.70;94.24;98884.72;5093485;28;20017;-42
2023/04/25 03:16:05;;;;;;;;;;;;;;;13.47;96.71;98889.19;5093498;28;19919;-41
2023/04/25 03:18:31;;;;;;;;;;;;;;;13.51;95.31;98876.13;5093626;28;20318;-40
2023/04/25 03:20:56;;;;;;;;;;;;;;;13.95;94.96;98894.16;5092368;28;19994;-41
2023/04/25 03:23:21;;;;;;;;;;;;;;;13.89;93.32;98895.97;5093494;28;20093;-42
2023/04/25 03:25:47;;;;;;;;;;;;;;;13.55;94.25;98897.84;5093152;28;20369;-42
2023/04/25 03:28:12;;;;;;;;;;;;;;;13.41;95.17;98886.69;5093133;28;19920;-41
2023/04/25 03:30:37;;;;;;;;;;;;;;;13.37;95.85;98882.88;5093222;28;20503;-42
2023/04/25 03:33:02;;;;;;;;;;;;;;;13.39;97.57;98883.44;5093249;28;19912;-42
2023/04/25 03:35:28;;;;;;;;;;;;;;;13.93;93.85;98881.03;5092956;28;19923;-42
2023/04/25 03:37:53;;;;;;;;;;;;;;;13.52;94.18;98869.75;5093203;28;20330;-41
2023/04/25 03:40:19;;;;;;;;;;;;;;;13.28;95.56;98861.84;5092475;28;19916;-42
2023/04/25 03:42:44;;;;;;;;;;;;;;;13.07;96.27;98858.03;5093504;28;19919;-42
2023/04/25 03:45:10;;;;;;;;;;;;;;;13.10;96.93;98857.56;5093153;28;19912;-42
2023/04/25 03:47:35;;;;;;;;;;;;;;;13.56;97.73;98857.50;5092682;28;20027;-42
2023/04/25 03:50:02;;;;;;;;;;;;;;;14.00;93.34;98851.44;5081756;28;19917;-40
2023/04/25 03:52:27;;;;;;;;;;;;;;;13.54;92.59;98856.94;5072462;28;19924;-43
2023/04/25 03:54:52;;;;;;;;;;;;;;;13.18;94.38;98847.53;5072952;28;20329;-43
2023/04/25 03:57:17;;;;;;;;;;;;;;;13.56;93.58;98857.50;5072617;28;19920;-43
2023/04/25 03:59:43;;;;;;;;;;;;;;;13.34;94.41;98857.44;5072280;28;19912;-41
2023/04/25 04:02:09;;;;;;;;;;;;;;;13.92;94.40;98849.19;5089763;28;19999;-42
2023/04/25 04:04:35;;;;;;;;;;;;;;;13.91;91.37;98842.22;5092512;28;20006;-41
2023/04/25 04:07:00;;;;;;;;;;;;;;;13.64;92.41;98843.72;5092627;28;20108;-42
2023/04/25 04:09:27;;;;;;;;;;;;;;;13.35;93.59;98851.06;5092275;28;19916;-42
2023/04/25 04:11:52;;;;;;;;;;;;;;;13.31;95.25;98839.22;5092501;28;20371;-42
2023/04/25 04:14:17;;;;;;;;;;;;;;;13.30;95.23;98841.06;5092369;28;19916;-42
2023/04/25 04:16:43;;;;;;;;;;;;;;;14.17;94.32;98848.72;5092279;28;19912;-42
2023/04/25 04:19:08;;;;;;;;;;;;;;;14.16;90.14;98841.75;5091826;28;19946;-42
2023/04/25 04:21:33;;;;;;;;;;;;;;;14.83;95.08;98854.84;5091932;28;19912;-42
2023/04/25 04:23:59;;;;;;;;;;;;;;;17.35;94.41;98867.66;5091631;28;19916;-42
2023/04/25 04:26:25;;;;;;;;;;;;;;;18.72;79.80;98864.88;5091814;28;19920;-42
2023/04/25 04:28:51;;;;;;;;;;;;;;;19.50;73.87;98868.66;5092160;28;19952;-42
2023/04/25 04:31:19;;;;;;;;;;;;;;;19.40;67.50;98871.47;5091997;28;19912;-42
2023/04/25 04:33:45;;;;;;;;;;;;;;;19.54;66.61;98875.09;5092234;28;19935;-42
2023/04/25 04:36:11;;;;;;;;;;;;;;;19.65;65.79;98870.44;5090181;28;20407;-42
2023/04/25 04:38:36;;;;;;;;;;;;;;;19.80;65.27;98872.22;5091799;28;20014;-42
2023/04/25 04:41:03;;;;;;;;;;;;;;;19.55;63.77;98873.19;5091804;28;19952;-42
2023/04/25 04:43:28;;;;;;;;;;;;;;;19.17;68.27;98864.88;5091600;28;19912;-42
2023/04/25 04:45:56;;;;;;;;;;;;;;;19.40;65.57;98862.53;5091827;28;19912;-42
2023/04/25 04:48:21;;;;;;;;;;;;;;;19.74;63.93;98867.94;5090868;28;19955;-42
2023/04/25 04:50:47;;;;;;;;;;;;;;;19.91;62.62;98867.50;5091191;28;19964;-42
2023/04/25 04:53:13;;;;;;;;;;;;;;;19.69;63.75;98867.97;5091356;28;19981;-42
2023/04/25 04:55:38;;;;;;;;;;;;;;;19.78;62.96;98869.00;5091651;28;19923;-41
2023/04/25 04:58:03;;;;;;;;;;;;;;;19.75;64.15;98877.66;5091246;28;19939;-41
2023/04/25 05:00:29;;;;;;;;;;;;;;;19.85;63.37;98872.13;5091092;28;20380;-42
2023/04/25 05:02:55;;;;;;;;;;;;;;;19.94;60.32;98874.22;5094670;28;19975;-41
2023/04/25 05:05:20;;;;;;;;;;;;;;;19.83;62.49;98871.63;5087946;28;19923;-41
2023/04/25 05:07:45;;;;;;;;;;;;;;;20.06;60.65;98880.81;5091796;28;20007;-42
2023/04/25 05:10:11;;;;;;;;;;;;;;;20.21;60.04;98870.97;5083087;28;19920;-43
2023/04/25 05:12:36;;;;;;;;;;;;;;;20.09;60.11;98869.47;5087515;28;19981;-43
2023/04/25 05:15:01;;;;;;;;;;;;;;;20.16;60.01;98869.09;5088039;28;19916;-41
2023/04/25 05:17:26;;;;;;;;;;;;;;;20.21;60.42;98866.34;5089346;28;20386;-41
2023/04/25 05:19:52;;;;;;;;;;;;;;;20.13;60.74;98868.91;5091609;28;19912;-41
2023/04/25 05:22:17;;;;;;;;;;;;;;;19.79;63.77;98865.19;5090853;28;19916;-41
2023/04/25 05:24:43;;;;;;;;;;;;;;;20.08;61.84;98870.53;5091219;28;19916;-42
2023/04/25 05:27:08;;;;;;;;;;;;;;;20.21;61.78;98871.75;5091361;28;19971;-41
2023/04/25 05:29:35;;;;;;;;;;;;;;;20.40;61.73;98869.09;5084059;28;19916;-41
2023/04/25 05:32:00;;;;;;;;;;;;;;;20.73;60.19;98863.81;5090081;28;19930;-40
2023/04/25 05:34:25;;;;;;;;;;;;;;;20.84;58.22;98865.28;5088222;28;19916;-41
2023/04/25 05:36:51;;;;;;;;;;;;;;;20.77;58.82;98870.28;5091118;28;19916;-41
2023/04/25 05:39:17;;;;;;;;;;;;;;;20.79;58.18;98867.25;5091046;28;19912;-41
2023/04/25 05:41:42;;;;;;;;;;;;;;;20.75;59.74;98861.63;5090565;28;19912;-42
2023/04/25 05:44:07;;;;;;;;;;;;;;;20.64;60.18;98871.78;5090351;28;20476;-42
2023/04/25 05:46:33;;;;;;;;;;;;;;;20.67;60.47;98862.28;5077173;28;20036;-41
2023/04/25 05:48:58;;;;;;;;;;;;;;;21.00;59.22;98870.47;5084860;28;20221;-40
2023/04/25 05:51:23;;;;;;;;;;;;;;;21.40;57.76;98870.91;5090219;28;19947;-42
2023/04/25 05:53:49;;;;;;;;;;;;;;;21.56;56.81;98868.81;5088954;28;19912;-42
2023/04/25 05:56:14;;;;;;;;;;;;;;;21.73;56.44;98866.34;5089180;28;19919;-41
2023/04/25 05:58:40;;;;;;;;;;;;;;;22.03;55.88;98861.47;5089421;28;19916;-41
2023/04/25 06:01:05;;;;;;;;;;;;;;;22.38;54.78;98856.44;5088129;28;19916;-41
2023/04/25 06:03:30;;;;;;;;;;;;;;;22.10;54.62;98866.47;5090321;28;19912;-40
2023/04/25 06:05:56;;;;;;;;;;;;;;;22.44;53.87;98863.38;5089388;28;19916;-41
2023/04/25 06:08:21;;;;;;;;;;;;;;;22.42;53.53;98862.88;5089491;28;20313;-41
2023/04/25 06:10:46;;;;;;;;;;;;;;;22.60;51.59;98853.81;5089937;28;19959;-41
2023/04/25 06:13:12;;;;;;;;;;;;;;;23.37;51.24;98852.03;5089512;28;20011;-41
2023/04/25 06:15:37;;;;;;;;;;;;;;;23.75;51.46;98858.97;5089494;28;19935;-41
2023/04/25 06:18:02;;;;;;;;;;;;;;;23.84;50.35;98856.28;5089947;28;20015;-41
2023/04/25 06:20:28;;;;;;;;;;;;;;;24.17;50.35;98849.41;5089183;28;19912;-41
2023/04/25 06:22:53;;;;;;;;;;;;;;;23.92;49.20;98848.19;5089371;28;19953;-41
2023/04/25 06:25:19;;;;;;;;;;;;;;;23.02;50.66;98853.69;5089484;28;19924;-41
2023/04/25 06:27:44;;;;;;;;;;;;;;;23.53;49.53;98852.47;5089649;28;20372;-40
2023/04/25 06:30:11;;;;;;;;;;;;;;;23.27;49.54;98849.59;5088641;28;19919;-41
2023/04/25 06:32:36;;;;;;;;;;;;;;;23.83;47.48;98855.50;5089315;28;19946;-41
2023/04/25 06:35:02;;;;;;;;;;;;;;;23.20;49.35;98852.72;5089268;28;19912;-41
2023/04/25 06:37:27;;;;;;;;;;;;;;;23.50;49.00;98844.94;5090104;28;20319;-41
2023/04/25 06:39:52;;;;;;;;;;;;;;;24.13;47.84;98834.84;5090041;28;19919;-41
2023/04/25 06:42:17;;;;;;;;;;;;;;;24.41;46.44;98837.31;5093009;28;19912;-40
2023/04/25 06:44:43;;;;;;;;;;;;;;;24.54;45.54;98827.44;5094151;28;20371;-43
2023/04/25 06:47:08;;;;;;;;;;;;;;;24.39;47.49;98832.19;5093564;28;20401;-40
2023/04/25 06:49:33;;;;;;;;;;;;;;;24.77;46.02;98839.00;5093694;28;19942;-41
2023/04/25 06:51:59;;;;;;;;;;;;;;;25.21;44.01;98837.03;5094183;28;20486;-40
2023/04/25 06:54:24;;;;;;;;;;;;;;;25.09;43.77;98834.16;5092619;28;19989;-48
2023/04/25 06:56:50;;;;;;;;;;;;;;;24.98;44.77;98837.22;5093732;28;19951;-41
2023/04/25 06:59:15;;;;;;;;;;;;;;;24.90;45.00;98838.03;5093572;28;19912;-40
2023/04/25 07:01:40;;;;;;;;;;;;;;;24.92;45.28;98838.50;5093532;28;19941;-40
2023/04/25 07:04:06;;;;;;;;;;;;;;;25.31;44.39;98844.09;5093441;28;19923;-41
2023/04/25 07:06:31;;;;;;;;;;;;;;;23.81;46.34;98850.38;5093233;28;20006;-40
2023/04/25 07:08:56;;;;;;;;;;;;;;;24.13;45.29;98839.47;5093565;28;19912;-41
2023/04/25 07:11:22;;;;;;;;;;;;;;;24.72;44.35;98839.94;5093251;28;19957;-41
2023/04/25 07:13:47;;;;;;;;;;;;;;;25.32;44.01;98832.06;5093668;28;19912;-41
2023/04/25 07:16:12;;;;;;;;;;;;;;;25.71;42.82;98838.38;5093814;28;19977;-42
2023/04/25 07:18:37;;;;;;;;;;;;;;;25.72;41.78;98837.25;5093277;28;20471;-41
2023/04/25 07:21:03;;;;;;;;;;;;;;;25.68;42.58;98836.31;5093185;28;20014;-41
2023/04/25 07:23:28;;;;;;;;;;;;;;;26.22;41.78;98827.59;5092344;28;20014;-41
2023/04/25 07:25:53;;;;;;;;;;;;;;;26.18;42.54;98827.47;5093112;28;19920;-39
2023/04/25 07:28:19;;;;;;;;;;;;;;;26.47;42.31;98834.03;5093303;28;20362;-40
2023/04/25 07:30:44;;;;;;;;;;;;;;;26.24;42.01;98826.13;5093074;28;19911;-42
2023/04/25 07:33:10;;;;;;;;;;;;;;;26.42;41.59;98823.31;5093432;28;19932;-40
2023/04/25 07:35:35;;;;;;;;;;;;;;;25.52;42.58;98820.50;5092915;28;19912;-41
2023/04/25 07:38:01;;;;;;;;;;;;;;;26.02;41.50;98819.03;5093107;28;20366;-41
2023/04/25 07:40:26;;;;;;;;;;;;;;;25.00;42.80;98815.13;5093134;28;19962;-40
2023/04/25 07:42:52;;;;;;;;;;;;;;;25.28;41.97;98817.50;5093392;28;19912;-41
2023/04/25 07:45:17;;;;;;;;;;;;;;;26.17;40.57;98825.06;5093154;28;19912;-41
2023/04/25 07:47:42;;;;;;;;;;;;;;;26.79;39.27;98818.06;5092604;28;20392;-41
2023/04/25 07:50:08;;;;;;;;;;;;;;;27.17;38.73;98812.44;5093171;28;19916;-41
2023/04/25 07:52:33;;;;;;;;;;;;;;;27.46;37.78;98810.72;5092209;28;19942;-41
2023/04/25 07:54:59;;;;;;;;;;;;;;;27.77;37.94;98812.13;5092741;28;19957;-41
2023/04/25 07:57:24;;;;;;;;;;;;;;;28.08;38.69;98812.41;5092700;28;20307;-40
2023/04/25 07:59:49;;;;;;;;;;;;;;;27.38;37.46;98803.41;5089794;28;20017;-41
2023/04/25 08:02:15;;;;;;;;;;;;;;;25.94;40.15;98798.09;5091609;28;20398;-41
2023/04/25 08:04:40;;;;;;;;;;;;;;;26.71;40.11;98801.47;5092479;28;20311;-42
2023/04/25 08:07:05;;;;;;;;;;;;;;;27.72;38.90;98801.41;5091591;28;20411;-40
2023/04/25 08:09:34;;;;;;;;;;;;;;;26.99;38.89;98806.34;5091449;28;19920;-41
2023/04/25 08:12:00;;;;;;;;;;;;;;;26.55;38.46;98797.69;5091467;28;19926;-41
2023/04/25 08:14:26;;;;;;;;;;;;;;;26.47;38.75;98793.13;5091912;28;20014;-41
2023/04/25 08:16:51;;;;;;;;;;;;;;;25.75;40.72;98815.59;5091668;28;20347;-41
2023/04/25 08:19:16;;;;;;;;;;;;;;;25.91;39.68;98818.63;5091920;28;19912;-41
2023/04/25 08:21:41;;;;;;;;;;;;;;;26.14;39.80;98805.50;5091745;28;19912;-41
2023/04/25 08:24:07;;;;;;;;;;;;;;;25.52;40.07;98815.03;5091578;28;19951;-41
2023/04/25 08:26:32;;;;;;;;;;;;;;;25.74;40.94;98811.28;5091167;28;20027;-41
2023/04/25 08:28:58;;;;;;;;;;;;;;;25.96;39.83;98808.66;5091614;28;19920;-41
2023/04/25 08:31:23;;;;;;;;;;;;;;;26.29;39.91;98806.06;5091597;28;19927;-40
2023/04/25 08:33:49;;;;;;;;;;;;;;;26.44;39.86;98810.91;5091721;28;19916;-40
2023/04/25 08:36:14;;;;;;;;;;;;;;;26.82;38.17;98810.00;5092024;28;19923;-40
2023/04/25 08:38:40;;;;;;;;;;;;;;;27.34;37.20;98799.75;5091648;28;19912;-41
2023/04/25 08:41:06;;;;;;;;;;;;;;;27.16;38.03;98805.38;5091646;28;19912;-41
2023/04/25 08:43:32;;;;;;;;;;;;;;;27.07;36.95;98812.84;5091760;28;19912;-41
2023/04/25 08:45:59;;;;;;;;;;;;;;;27.54;35.37;98818.00;5091878;28;19941;-41
2023/04/25 08:48:26;;;;;;;;;;;;;;;27.79;36.54;98818.84;5091606;28;20048;-41
2023/04/25 08:50:53;;;;;;;;;;;;;;;27.96;34.90;98812.38;5090808;28;19966;-42
2023/04/25 08:53:36;;;;;;;;;;;;;;;28.05;33.96;98821.28;5090584;28;19916;-41
2023/04/25 08:56:02;;;;;;;;;;;;;;;27.75;34.61;98820.66;5087721;28;19912;-41
2023/04/25 08:58:28;;;;;;;;;;;;;;;27.93;35.34;98829.50;5091038;28;19912;-41
2023/04/25 09:00:53;;;;;;;;;;;;;;;27.82;35.43;98828.31;5091409;28;19958;-41
2023/04/25 09:03:18;;;;;;;;;;;;;;;27.71;36.62;98829.88;5090960;28;19969;-40
2023/04/25 09:05:44;;;;;;;;;;;;;;;27.14;36.82;98832.22;5089860;28;20000;-41
2023/04/25 09:08:10;;;;;;;;;;;;;;;26.66;37.65;98820.75;5091016;28;19920;-41
2023/04/25 09:10:35;;;;;;;;;;;;;;;26.76;37.85;98822.28;5090954;28;19912;-41
2023/04/25 09:13:14;;;;;;;;;;;;;;;26.99;37.76;98816.47;5090714;28;19912;-42
2023/04/25 09:15:51;;;;;;;;;;;;;;;27.09;37.41;98819.59;5090807;28;20316;-41
2023/04/25 09:18:26;;;;;;;;;;;;;;;26.97;38.17;98816.00;5088781;28;20340;-42
2023/04/25 09:21:08;;;;;;;;;;;;;;;26.69;38.13;98816.53;5089037;28;19941;-41
2023/04/25 09:23:41;;;;;;;;;;;;;;;26.74;38.38;98810.09;5090820;28;20007;-41
2023/04/25 09:26:07;;;;;;;;;;;;;;;26.42;39.39;98810.44;5087520;28;19923;-40
2023/04/25 09:28:32;;;;;;;;;;;;;;;25.89;40.18;98811.84;5070321;28;19920;-40
2023/04/25 09:30:57;;;;;;;;;;;;;;;25.67;41.10;98808.25;5070327;28;19974;-41
2023/04/25 09:33:30;;;;;;;;;;;;;;;25.78;40.58;98808.72;5070645;28;20380;-42
2023/04/25 09:36:01;;;;;;;;;;;;;;;25.40;41.42;98806.75;5070763;28;20311;-41
2023/04/25 09:38:26;;;;;;;;;;;;;;;24.89;41.63;98805.69;5070309;28;19955;-41
2023/04/25 09:40:52;;;;;;;;;;;;;;;25.71;40.89;98801.03;5070619;28;19974;-41
2023/04/25 09:43:21;;;;;;;;;;;;;;;25.86;39.50;98794.25;5069837;28;19913;-41
2023/04/25 09:45:47;;;;;;;;;;;;;;;26.45;38.89;98796.16;5069408;28;19955;-41
2023/04/25 09:48:21;;;;;;;;;;;;;;;25.80;39.95;98784.66;5070107;28;19955;-41
2023/04/25 09:51:05;;;;;;;;;;;;;;;26.37;37.92;98786.13;5070058;28;19916;-41
2023/04/25 09:53:31;;;;;;;;;;;;;;;26.49;37.28;98782.66;5070143;28;19912;-42
2023/04/25 09:55:59;;;;;;;;;;;;;;;27.14;36.94;98777.59;5069908;28;19995;-42
2023/04/25 09:58:25;;;;;;;;;;;;;;;26.84;36.35;98766.03;5070345;28;19916;-41
2023/04/25 10:00:51;;;;;;;;;;;;;;;26.46;37.74;98770.47;5070298;28;20380;-41
2023/04/25 10:03:17;;;;;;;;;;;;;;;26.42;37.39;98750.44;5070197;28;19913;-42
2023/04/25 10:05:43;;;;;;;;;;;;;;;26.89;37.42;98750.25;5086133;28;19912;-42
2023/04/25 10:08:08;;;;;;;;;;;;;;;27.87;36.10;98746.06;5070310;28;20358;-42
2023/04/25 10:10:36;;;;;;;;;;;;;;;27.97;34.81;98745.66;5070317;28;20328;-42
2023/04/25 10:13:03;;;;;;;;;;;;;;;28.25;33.96;98745.72;5070294;28;19913;-41
2023/04/25 10:15:29;;;;;;;;;;;;;;;27.69;34.92;98738.09;5070441;28;19912;-41
2023/04/25 10:17:54;;;;;;;;;;;;;;;28.32;33.13;98736.13;5074318;28;19913;-42
2023/04/25 10:20:20;;;;;;;;;;;;;;;27.65;35.47;98733.69;5073941;28;19923;-41
2023/04/25 10:22:46;;;;;;;;;;;;;;;27.76;34.36;98720.34;5076163;28;19912;-41
2023/04/25 10:25:12;;;;;;;;;;;;;;;27.43;33.30;98713.84;5094110;28;20375;-41
2023/04/25 10:27:38;;;;;;;;;;;;;;;26.92;33.11;98716.81;5094678;28;19920;-41
2023/04/25 10:30:24;;;;;;;;;;;;;;;27.34;33.21;98699.53;5094247;28;19912;-42
2023/04/25 10:32:50;;;;;;;;;;;;;;;28.39;32.85;98689.84;5094273;28;19949;-41
2023/04/25 10:35:16;;;;;;;;;;;;;;;27.79;33.50;98695.84;5094164;28;19999;-41
2023/04/25 10:37:57;;;;;;;;;;;;;;;28.90;32.16;98679.13;5093935;28;19919;-41
2023/04/25 10:40:22;;;;;;;;;;;;;;;29.14;31.04;98678.19;5094037;28;19912;-41
2023/04/25 10:42:48;;;;;;;;;;;;;;;28.45;30.86;98669.28;5093990;28;19919;-42
2023/04/25 10:45:14;;;;;;;;;;;;;;;27.41;32.41;98668.91;5094222;28;19919;-41
2023/04/25 10:47:44;;;;;;;;;;;;;;;27.38;34.25;98669.56;5094187;28;19920;-41
2023/04/25 10:50:09;;;;;;;;;;;;;;;26.24;34.26;98664.50;5093703;28;20120;-40
2023/04/25 10:52:34;;;;;;;;;;;;;;;27.56;31.82;98660.00;5093062;28;19919;-40
2023/04/25 10:55:02;;;;;;;;;;;;;;;27.81;32.15;98665.44;5092757;28;20364;-43
2023/04/25 10:57:46;;;;;;;;;;;;;;;28.46;31.76;98648.97;5092903;28;19943;-40
2023/04/25 11:00:15;;;;;;;;;;;;;;;29.14;31.45;98648.06;5093562;28;19912;-42
2023/04/25 11:02:42;;;;;;;;;;;;;;;28.37;32.59;98654.59;5093631;28;19912;-42
2023/04/25 11:05:08;;;;;;;;;;;;;;;27.30;33.48;98633.88;5093707;28;19923;-40
2023/04/25 11:07:39;;;;;;;;;;;;;;;26.23;37.24;98647.31;5093445;28;19943;-41
2023/04/25 11:10:05;;;;;;;;;;;;;;;26.09;37.06;98639.41;5093475;28;19995;-42
2023/04/25 11:12:31;;;;;;;;;;;;;;;26.40;36.47;98637.38;5093438;28;19978;-41
2023/04/25 11:15:01;;;;;;;;;;;;;;;26.78;34.92;98641.84;5093582;28;20391;-41
2023/04/25 11:17:26;;;;;;;;;;;;;;;27.04;35.16;98636.88;5093693;28;20027;-40
2023/04/25 11:19:51;;;;;;;;;;;;;;;27.51;34.12;98630.19;5093569;28;19985;-41
2023/04/25 11:22:17;;;;;;;;;;;;;;;27.69;34.02;98634.25;5093651;28;19912;-41
2023/04/25 11:24:42;;;;;;;;;;;;;;;27.62;34.58;98630.53;5092921;28;19928;-41
2023/04/25 11:27:08;;;;;;;;;;;;;;;27.13;35.06;98627.78;5092573;28;19920;-41
2023/04/25 11:29:34;;;;;;;;;;;;;;;26.87;36.53;98620.72;5093172;28;19963;-41
2023/04/25 11:32:00;;;;;;;;;;;;;;;26.10;37.71;98612.94;5093260;28;19916;-41
2023/04/25 11:34:26;;;;;;;;;;;;;;;26.08;38.74;98616.03;5093211;28;19953;-40
2023/04/25 11:36:52;;;;;;;;;;;;;;;25.65;38.96;98605.44;5093730;28;19912;-41
2023/04/25 11:39:21;;;;;;;;;;;;;;;25.83;39.08;98604.16;5093748;28;19912;-42
2023/04/25 11:41:47;;;;;;;;;;;;;;;25.79;39.17;98603.22;5092849;28;20361;-41
2023/04/25 11:44:15;;;;;;;;;;;;;;;25.10;38.76;98594.34;5093303;28;20417;-41
2023/04/25 11:46:40;;;;;;;;;;;;;;;24.27;41.10;98590.06;5093539;28;19922;-41
2023/04/25 11:49:05;;;;;;;;;;;;;;;24.73;40.42;98582.31;5092687;28;20014;-41
2023/04/25 11:51:37;;;;;;;;;;;;;;;24.13;40.86;98586.75;5092920;28;19969;-42
2023/04/25 11:54:02;;;;;;;;;;;;;;;23.90;41.45;98577.97;5093688;28;20367;-42
2023/04/25 11:56:28;;;;;;;;;;;;;;;24.42;41.02;98567.03;5093367;28;19944;-41
2023/04/25 11:58:53;;;;;;;;;;;;;;;24.62;40.19;98573.72;5092737;28;19912;-41
2023/04/25 12:01:29;;;;;;;;;;;;;;;24.44;40.75;98567.50;5092791;28;19924;-41
2023/04/25 12:03:55;;;;;;;;;;;;;;;24.93;39.66;98570.72;5092618;28;20352;-40
2023/04/25 12:06:20;;;;;;;;;;;;;;;24.65;39.85;98553.25;5092857;28;20006;-41
2023/04/25 12:09:04;;;;;;;;;;;;;;;24.64;40.69;98548.94;5092699;28;19916;-43
2023/04/25 12:11:40;;;;;;;;;;;;;;;24.23;40.68;98547.56;5092996;28;20387;-42
2023/04/25 12:14:05;;;;;;;;;;;;;;;24.49;41.19;98552.94;5092770;28;20018;-42
2023/04/25 12:16:40;;;;;;;;;;;;;;;24.73;40.00;98552.41;5092589;28;19954;-43
2023/04/25 12:19:05;;;;;;;;;;;;;;;24.44;39.62;98545.75;5092409;28;19931;-42
2023/04/25 12:21:32;;;;;;;;;;;;;;;24.27;40.11;98535.72;5092863;28;19985;-41
2023/04/25 12:24:08;;;;;;;;;;;;;;;24.75;38.92;98550.16;5092467;28;19912;-42
2023/04/25 12:26:52;;;;;;;;;;;;;;;24.56;39.30;98540.47;5092298;28;19924;-42
2023/04/25 12:29:19;;;;;;;;;;;;;;;24.49;39.49;98537.44;5092295;28;19962;-41
2023/04/25 12:31:45;;;;;;;;;;;;;;;24.94;38.45;98542.41;5092855;28;20376;-42
2023/04/25 12:34:10;;;;;;;;;;;;;;;24.64;39.89;98544.28;5092096;28;19916;-43
2023/04/25 12:36:35;;;;;;;;;;;;;;;25.47;38.88;98540.16;5092183;28;19912;-41
2023/04/25 12:39:04;;;;;;;;;;;;;;;25.84;38.83;98539.59;5092129;28;20053;-41
2023/04/25 12:41:29;;;;;;;;;;;;;;;26.76;37.22;98535.75;5091941;28;19919;-42
2023/04/25 12:43:55;;;;;;;;;;;;;;;26.78;36.21;98533.50;5091799;28;19912;-42